Wilkinson, Indiana
Current Conditions -  °F | °C
As of 11:15 PM on Sunday 21 Dec 2014 (Local Time) from KMQJ Reporting Station
Clear Clear  
Wind Chill: 25°   Ceiling: Unl
Heat Index: 30°   Visibility: 7mi
Dew Point: 23°   Wind: 5mph
Humidity: 75%   Direction: 140°SE
Pressure: 30.1"   Gusts: NA
Location:  39.89°N, 85.61°W
Report Text: KMQJ 220415Z AUTO 14004KT 7SM CLR M01/M05 A3010 RMK AO1
Loading
Personal Weather Stations






























Interactive Weather Map New forecast layout! Learn more

10-Day Weather Forecast

Advertisements
Track Severe Weather on mobile